Time;durP1;ratioP1;P1;durP2;ratioP2;P2;SDS_P1;SDS_P2;PMS_P1;PMS_P2;Temp;Humidity;BMP_temperature;BMP_pressure;BME280_temperature;BME280_humidity;BME280_pressure;Samples;Min_cycle;Max_cycle;Signal;HPM_P1;HPM_P2
2023/06/22 00:01:24;;;;;;;9.68;8.75;;;;;;;28.47;55.63;101288.69;5096725;28;20036;-56
2023/06/22 00:03:52;;;;;;;8.93;8.07;;;;;;;28.47;55.89;101291.41;5096767;28;20044;-57
2023/06/22 00:06:20;;;;;;;10.90;8.18;;;;;;;28.47;55.78;101281.34;5096665;28;20406;-57
2023/06/22 00:08:47;;;;;;;8.63;7.78;;;;;;;28.47;55.81;101280.50;5096592;28;20461;-57
2023/06/22 00:11:14;;;;;;;9.88;8.60;;;;;;;28.47;55.48;101297.69;5096756;28;20037;-51
2023/06/22 00:13:42;;;;;;;8.60;7.72;;;;;;;28.46;55.93;101296.00;5096548;28;20044;-50
2023/06/22 00:16:09;;;;;;;9.57;8.68;;;;;;;28.46;55.97;101287.84;5096708;28;20468;-51
2023/06/22 00:18:36;;;;;;;8.63;7.82;;;;;;;28.47;55.82;101272.34;5096476;28;20404;-52
2023/06/22 00:21:04;;;;;;;8.55;7.50;;;;;;;28.46;55.95;101271.50;5096194;28;20047;-52
2023/06/22 00:23:34;;;;;;;8.63;7.82;;;;;;;28.46;55.40;101274.22;5096135;28;20508;-53
2023/06/22 00:26:02;;;;;;;8.70;7.80;;;;;;;28.46;55.49;101278.81;5096174;28;20106;-52
2023/06/22 00:28:30;;;;;;;9.10;8.20;;;;;;;28.45;55.90;101275.25;5096004;28;20415;-53
2023/06/22 00:30:57;;;;;;;8.32;7.53;;;;;;;28.46;55.80;101276.09;5096304;28;20043;-56
2023/06/22 00:33:25;;;;;;;9.43;8.52;;;;;;;28.45;55.80;101269.81;5096226;28;20507;-56
2023/06/22 00:35:53;;;;;;;8.70;7.90;;;;;;;28.46;55.65;101271.50;5095975;28;20353;-57
2023/06/22 00:38:21;;;;;;;9.63;8.63;;;;;;;28.45;55.63;101267.09;5094690;28;20059;-57
2023/06/22 00:40:48;;;;;;;9.35;8.45;;;;;;;28.45;55.55;101271.69;5095889;28;20052;-51
2023/06/22 00:43:15;;;;;;;9.02;7.80;;;;;;;28.46;55.56;101285.09;5095803;28;20040;-54
2023/06/22 00:45:43;;;;;;;9.52;8.05;;;;;;;28.46;56.00;101295.16;5111487;28;20052;-52
2023/06/22 00:48:12;;;;;;;9.30;8.27;;;;;;;28.46;55.53;101296.00;5095356;28;20048;-53
2023/06/22 00:50:40;;;;;;;8.93;8.05;;;;;;;28.46;55.64;101290.56;5094209;28;20431;-54
2023/06/22 00:53:08;;;;;;;8.68;7.88;;;;;;;28.46;56.00;101282.38;5094330;28;20048;-56
2023/06/22 00:55:51;;;;;;;8.63;7.82;;;;;;;28.46;55.53;101276.94;5094548;28;20048;-56
2023/06/22 00:58:21;;;;;;;8.48;7.68;;;;;;;28.47;55.74;101275.06;5095842;28;20071;-56
2023/06/22 01:00:49;;;;;;;9.10;8.15;;;;;;;28.46;55.59;101270.66;5095738;28;20052;-55
2023/06/22 01:03:17;;;;;;;8.45;7.63;;;;;;;28.46;55.61;101262.47;5095382;28;20040;-57
2023/06/22 01:05:47;;;;;;;8.77;7.88;;;;;;;28.46;55.74;101274.22;5094412;28;20052;-57
2023/06/22 01:08:37;;;;;;;8.27;7.43;;;;;;;28.46;55.24;101279.66;5095442;28;20040;-57
2023/06/22 01:11:09;;;;;;;9.23;8.32;;;;;;;28.45;55.35;101269.81;5094252;28;20052;-52
2023/06/22 01:14:04;;;;;;;7.95;7.22;;;;;;;28.45;55.82;101267.09;5095279;28;20502;-51
2023/06/22 01:16:35;;;;;;;9.05;8.20;;;;;;;28.46;55.54;101287.84;5095291;28;20040;-50
2023/06/22 01:19:34;;;;;;;8.77;7.88;;;;;;;28.46;55.48;101295.16;5110488;28;20052;-51
2023/06/22 01:22:05;;;;;;;8.27;7.47;;;;;;;28.45;55.85;101283.44;5093663;28;20044;-56
2023/06/22 01:24:46;;;;;;;10.05;8.77;;;;;;;28.45;55.88;101272.53;5095004;28;20040;-56
2023/06/22 01:27:45;;;;;;;8.60;7.70;;;;;;;28.45;55.84;101280.69;5095084;28;20044;-56
2023/06/22 01:30:16;;;;;;;8.55;7.75;;;;;;;28.45;55.74;101288.03;5094737;28;20063;-56
2023/06/22 01:32:44;;;;;;;8.65;7.80;;;;;;;28.46;55.48;101287.84;5094896;28;20036;-56
2023/06/22 01:35:12;;;;;;;7.90;7.20;;;;;;;28.46;55.77;101284.28;5092971;28;20059;-56
2023/06/22 01:37:40;;;;;;;9.18;7.75;;;;;;;28.46;55.81;101287.84;5094531;28;20044;-56
2023/06/22 01:40:08;;;;;;;9.45;8.57;;;;;;;28.46;55.92;101285.09;5094196;28;20051;-56
2023/06/22 01:42:37;;;;;;;10.60;8.93;;;;;;;28.45;55.70;101280.69;5094398;28;20372;-56
2023/06/22 01:45:07;;;;;;;8.60;7.70;;;;;;;28.46;56.01;101289.72;5093379;28;20059;-57
2023/06/22 01:47:39;;;;;;;8.70;7.80;;;;;;;28.46;55.70;101284.28;5093382;28;20052;-57
2023/06/22 01:50:07;;;;;;;8.52;7.60;;;;;;;28.45;55.96;101275.25;5094608;28;20384;-57
2023/06/22 01:52:34;;;;;;;9.40;8.57;;;;;;;28.45;56.00;101275.25;5094191;28;20036;-56
2023/06/22 01:55:02;;;;;;;8.23;7.40;;;;;;;28.45;55.98;101277.97;5094473;28;20055;-56
2023/06/22 01:57:29;;;;;;;8.40;7.60;;;;;;;28.45;55.66;101277.13;5094463;28;20048;-56
2023/06/22 02:00:02;;;;;;;8.35;7.55;;;;;;;28.45;55.89;101282.56;5093055;28;20059;-56
2023/06/22 02:03:02;;;;;;;9.05;8.15;;;;;;;28.45;55.89;101279.84;5101070;28;20476;-53
2023/06/22 02:05:36;;;;;;;8.85;7.65;;;;;;;28.45;55.83;101277.13;5094323;28;20055;-51
2023/06/22 02:08:09;;;;;;;8.60;7.80;;;;;;;28.44;55.91;101287.19;5093045;28;20056;-53
2023/06/22 02:10:38;;;;;;;10.05;7.90;;;;;;;28.44;56.00;101289.03;5093078;28;20402;-53
2023/06/22 02:13:08;;;;;;;8.52;7.72;;;;;;;28.44;55.88;101292.63;5094096;28;20499;-56
2023/06/22 02:15:36;;;;;;;8.60;7.80;;;;;;;28.44;55.56;101286.31;5092705;28;20052;-56
2023/06/22 02:18:05;;;;;;;8.82;8.00;;;;;;;28.44;55.88;101292.63;5093043;28;20055;-56
2023/06/22 02:20:32;;;;;;;8.38;7.38;;;;;;;28.44;55.76;101289.91;5094154;28;20044;-57
2023/06/22 02:22:59;;;;;;;8.90;8.10;;;;;;;28.44;55.90;101295.34;5094119;28;20040;-56
2023/06/22 02:25:27;;;;;;;9.15;8.13;;;;;;;28.44;55.86;101289.03;5092657;28;20492;-57
2023/06/22 02:27:54;;;;;;;7.72;6.97;;;;;;;28.45;56.09;101291.59;5093969;28;20043;-57
2023/06/22 02:30:21;;;;;;;8.50;7.60;;;;;;;28.46;55.68;101303.34;5093642;28;20538;-57
2023/06/22 02:32:49;;;;;;;8.95;8.02;;;;;;;28.45;55.64;101307.94;5092866;28;20052;-56
2023/06/22 02:35:16;;;;;;;8.82;7.93;;;;;;;28.44;56.06;101306.25;5093886;28;20039;-57
2023/06/22 02:37:46;;;;;;;9.13;8.07;;;;;;;28.45;56.08;101307.94;5092787;28;20055;-56
2023/06/22 02:40:14;;;;;;;9.85;8.85;;;;;;;28.44;56.27;101298.06;5092713;28;20051;-56
2023/06/22 02:42:41;;;;;;;8.45;7.65;;;;;;;28.44;56.27;101289.91;5092753;28;20048;-56
2023/06/22 02:45:09;;;;;;;9.85;8.65;;;;;;;28.44;56.09;101292.63;5093269;28;20051;-57
2023/06/22 02:47:36;;;;;;;8.18;7.40;;;;;;;28.44;56.11;101303.53;5092612;28;20052;-56
2023/06/22 02:50:05;;;;;;;8.73;7.93;;;;;;;28.44;55.71;101298.06;5091922;28;20052;-56
2023/06/22 02:52:34;;;;;;;9.65;8.73;;;;;;;28.44;56.10;101308.97;5092241;28;20040;-56
2023/06/22 02:55:02;;;;;;;8.77;7.97;;;;;;;28.44;56.05;101308.97;5091715;28;20051;-56
2023/06/22 02:57:30;;;;;;;8.95;8.05;;;;;;;28.44;55.84;101308.97;5092268;28;20052;-57
2023/06/22 02:59:58;;;;;;;9.27;8.38;;;;;;;28.44;56.28;101330.75;5092275;28;20052;-56
2023/06/22 03:02:26;;;;;;;9.25;8.30;;;;;;;28.45;56.27;101320.72;5092351;28;20055;-57
2023/06/22 03:04:53;;;;;;;8.38;7.57;;;;;;;28.43;56.19;101320.88;5093420;28;20380;-56
2023/06/22 03:07:21;;;;;;;9.30;8.40;;;;;;;28.44;56.15;101329.88;5093490;28;20044;-57
2023/06/22 03:09:50;;;;;;;10.10;9.10;;;;;;;28.40;55.95;101332.16;5092096;28;20400;-57
2023/06/22 03:12:18;;;;;;;10.90;9.68;;;;;;;28.32;56.53;101324.84;5093641;28;20048;-55
2023/06/22 03:14:52;;;;;;;14.88;13.43;;;;;;;28.19;56.81;101327.28;5092245;28;20052;-55
2023/06/22 03:17:19;;;;;;;13.57;11.75;;;;;;;28.07;57.37;101329.56;5093249;28;20041;-55
2023/06/22 03:19:46;;;;;;;12.55;11.18;;;;;;;27.99;57.54;101345.91;5093400;28;20055;-55
2023/06/22 03:22:14;;;;;;;11.20;10.15;;;;;;;27.93;57.38;101340.34;5091920;28;20048;-55
2023/06/22 03:24:42;;;;;;;11.77;10.60;;;;;;;27.93;57.66;101332.19;5091584;28;20055;-55
2023/06/22 03:27:09;;;;;;;11.68;10.50;;;;;;;27.92;57.59;101336.78;5091978;28;20519;-55
2023/06/22 03:29:37;;;;;;;10.93;9.93;;;;;;;27.92;57.25;101334.06;5091661;28;20048;-55
2023/06/22 03:32:06;;;;;;;11.10;10.00;;;;;;;27.94;57.57;101332.00;5093158;28;20065;-55
2023/06/22 03:34:35;;;;;;;11.82;10.63;;;;;;;27.96;57.19;101329.13;5092353;28;20048;-55
2023/06/22 03:37:03;;;;;;;11.98;10.77;;;;;;;27.97;57.48;101334.38;5091894;28;20487;-55
2023/06/22 03:39:31;;;;;;;10.55;9.55;;;;;;;28.00;56.92;101335.91;5093218;28;20043;-56
2023/06/22 03:41:59;;;;;;;10.63;9.43;;;;;;;28.02;56.90;101340.13;5091952;28;20051;-55
2023/06/22 03:44:26;;;;;;;12.65;10.38;;;;;;;28.03;56.75;101336.38;5091743;28;20051;-55
2023/06/22 03:46:54;;;;;;;11.52;10.43;;;;;;;27.98;57.15;101340.66;5091733;28;20423;-56
2023/06/22 03:49:21;;;;;;;11.48;10.32;;;;;;;27.92;57.18;101341.38;5093136;28;20044;-54
2023/06/22 03:51:49;;;;;;;11.32;10.23;;;;;;;27.87;57.27;101336.44;5093239;28;20048;-57
2023/06/22 03:54:16;;;;;;;11.48;10.38;;;;;;;27.83;57.36;101335.09;5093126;28;20043;-57
2023/06/22 03:56:43;;;;;;;10.70;9.43;;;;;;;27.83;57.13;101340.53;5093099;28;20353;-57
2023/06/22 03:59:11;;;;;;;12.02;9.95;;;;;;;27.82;57.10;101338.84;5096678;28;20391;-57
2023/06/22 04:01:38;;;;;;;13.65;10.82;;;;;;;27.81;57.33;101329.00;5096967;28;20052;-55
2023/06/22 04:04:05;;;;;;;11.77;10.55;;;;;;;27.82;57.24;101336.13;5096696;28;20032;-55
2023/06/22 04:06:34;;;;;;;13.10;11.73;;;;;;;27.77;57.34;101342.09;5096763;28;20066;-55
2023/06/22 04:09:02;;;;;;;11.88;10.73;;;;;;;27.72;57.35;101340.91;5096543;28;20148;-55
2023/06/22 04:11:29;;;;;;;12.05;10.82;;;;;;;27.68;57.89;101350.44;5096706;28;20476;-57
2023/06/22 04:13:57;;;;;;;11.93;10.82;;;;;;;27.58;57.84;101346.03;5096592;28;20058;-57
2023/06/22 04:16:24;;;;;;;12.32;10.68;;;;;;;27.53;58.07;101345.72;5096499;28;20043;-57
2023/06/22 04:18:51;;;;;;;11.63;10.32;;;;;;;27.52;58.23;101343.19;5096344;28;20048;-57
2023/06/22 04:21:19;;;;;;;11.82;9.95;;;;;;;27.49;58.18;101341.66;5096270;28;20518;-57
2023/06/22 04:23:46;;;;;;;10.75;9.52;;;;;;;27.50;57.91;101339.78;5096122;28;20040;-57
2023/06/22 04:26:14;;;;;;;11.10;9.77;;;;;;;27.51;58.16;101338.78;5096236;28;20055;-57
2023/06/22 04:28:41;;;;;;;11.40;10.20;;;;;;;27.51;58.24;101342.34;5096054;28;20067;-57
2023/06/22 04:31:09;;;;;;;12.13;10.23;;;;;;;27.53;58.07;101340.28;5096325;28;20055;-57
2023/06/22 04:33:40;;;;;;;12.25;10.57;;;;;;;27.55;58.04;101340.13;5096114;28;20062;-57
2023/06/22 04:36:07;;;;;;;10.93;9.82;;;;;;;27.57;57.94;101346.22;5095997;28;20051;-57
2023/06/22 04:38:35;;;;;;;10.07;9.07;;;;;;;27.57;58.14;101343.50;5095571;28;20048;-55
2023/06/22 04:41:03;;;;;;;10.88;9.65;;;;;;;27.58;57.80;101346.03;5095714;28;20047;-55
2023/06/22 04:43:30;;;;;;;11.88;10.57;;;;;;;27.61;57.90;101350.28;5095541;28;20048;-55
2023/06/22 04:46:03;;;;;;;10.80;9.75;;;;;;;27.63;58.02;101345.53;5095867;28;20048;-55
2023/06/22 04:48:33;;;;;;;11.63;9.13;;;;;;;27.65;57.78;101350.78;5095949;28;20048;-55
2023/06/22 04:51:04;;;;;;;11.70;10.57;;;;;;;27.67;57.75;101352.31;5094624;28;20044;-55
2023/06/22 04:53:32;;;;;;;10.15;8.93;;;;;;;27.71;57.42;101350.06;5095742;28;20040;-54
2023/06/22 04:55:59;;;;;;;11.32;8.68;;;;;;;27.72;57.82;101344.47;5095729;28;20043;-55
2023/06/22 04:58:32;;;;;;;11.23;10.13;;;;;;;27.73;57.75;101337.16;5095357;28;20491;-56
2023/06/22 05:00:59;;;;;;;11.63;10.43;;;;;;;27.72;57.66;101343.63;5095258;28;20044;-55
2023/06/22 05:03:27;;;;;;;11.32;10.15;;;;;;;27.68;57.58;101336.84;5095377;28;20040;-55
2023/06/22 05:05:54;;;;;;;10.90;9.80;;;;;;;27.66;57.76;101337.00;5095488;28;20388;-55
2023/06/22 05:08:26;;;;;;;11.02;9.88;;;;;;;27.65;57.85;101339.91;5095165;28;20048;-55
2023/06/22 05:10:54;;;;;;;9.85;8.85;;;;;;;27.63;58.06;101340.09;5094985;28;20392;-56
2023/06/22 05:13:32;;;;;;;10.27;8.70;;;;;;;27.62;58.10;101338.38;5095402;28;20040;-57
2023/06/22 05:16:03;;;;;;;11.02;9.10;;;;;;;27.62;58.22;101335.66;5095222;28;20051;-57
2023/06/22 05:18:30;;;;;;;12.45;10.90;;;;;;;27.58;58.05;101346.03;5095361;28;20044;-57
2023/06/22 05:20:59;;;;;;;10.13;9.13;;;;;;;27.58;58.63;101340.59;5095220;28;20388;-57
2023/06/22 05:23:27;;;;;;;10.13;9.13;;;;;;;27.60;58.48;101341.28;5077238;28;20507;-57
2023/06/22 05:25:57;;;;;;;11.13;9.80;;;;;;;27.62;58.58;101335.66;5094547;28;20438;-57
2023/06/22 05:28:25;;;;;;;9.50;8.60;;;;;;;27.66;58.11;101341.59;5094391;28;20051;-57
2023/06/22 05:30:52;;;;;;;9.85;8.73;;;;;;;27.69;58.06;101349.41;5094712;28;20047;-56
2023/06/22 05:33:19;;;;;;;12.55;10.48;;;;;;;27.69;58.29;101346.69;5094849;28;20495;-56
2023/06/22 05:35:47;;;;;;;14.00;10.43;;;;;;;27.65;58.90;101340.75;5094560;28;20058;-55
2023/06/22 05:38:14;;;;;;;11.82;9.77;;;;;;;27.65;58.94;101342.63;5093667;28;20059;-55
2023/06/22 05:40:43;;;;;;;10.05;8.88;;;;;;;27.62;58.78;101341.09;5093365;28;20063;-56
2023/06/22 05:43:10;;;;;;;11.73;10.07;;;;;;;27.58;59.15;101348.75;5094928;28;20047;-56
2023/06/22 05:45:37;;;;;;;10.40;8.75;;;;;;;27.59;59.19;101336.88;5094757;28;20036;-55
2023/06/22 05:48:05;;;;;;;11.30;9.18;;;;;;;27.61;58.88;101334.81;5094772;28;20377;-55
2023/06/22 05:50:33;;;;;;;12.02;10.50;;;;;;;27.63;58.87;101331.06;5094593;28;20044;-55
2023/06/22 05:53:00;;;;;;;12.07;8.75;;;;;;;27.65;58.85;101332.59;5094603;28;20052;-57
2023/06/22 05:55:27;;;;;;;12.30;8.70;;;;;;;27.66;58.69;101328.84;5094570;28;20040;-57
2023/06/22 05:57:55;;;;;;;12.77;9.70;;;;;;;27.66;58.74;101331.56;5094079;28;20074;-57
2023/06/22 06:00:23;;;;;;;9.35;8.30;;;;;;;27.66;58.67;101328.84;5094087;28;20044;-57
2023/06/22 06:02:51;;;;;;;9.10;8.20;;;;;;;27.70;58.10;101326.63;5092727;28;20052;-55
2023/06/22 06:05:19;;;;;;;9.23;8.23;;;;;;;27.72;57.98;101322.72;5093894;28;20043;-55
2023/06/22 06:07:46;;;;;;;8.43;7.53;;;;;;;27.76;57.82;101329.53;5093821;28;20048;-55
2023/06/22 06:10:14;;;;;;;9.43;7.85;;;;;;;27.78;58.04;101330.19;5093900;28;20059;-54
2023/06/22 06:12:41;;;;;;;9.10;7.85;;;;;;;27.81;57.94;101324.41;5093963;28;20048;-56
2023/06/22 06:15:09;;;;;;;8.73;7.72;;;;;;;27.83;57.66;101324.22;5094653;28;20052;-56
2023/06/22 06:17:51;;;;;;;9.40;8.02;;;;;;;27.86;57.66;101332.03;5093881;28;20044;-54
2023/06/22 06:20:21;;;;;;;9.43;8.45;;;;;;;27.88;57.61;101342.75;5094051;28;20499;-52
2023/06/22 06:22:49;;;;;;;8.32;7.40;;;;;;;27.89;56.86;101341.72;5093983;28;20055;-52
2023/06/22 06:25:18;;;;;;;8.00;7.20;;;;;;;27.91;56.29;101339.66;5093048;28;20048;-53
2023/06/22 06:27:46;;;;;;;9.48;7.47;;;;;;;27.91;56.65;101329.63;5093807;28;20118;-53
2023/06/22 06:30:15;;;;;;;8.43;7.55;;;;;;;27.92;55.78;101334.06;5093906;28;20055;-53
2023/06/22 06:32:45;;;;;;;9.02;7.20;;;;;;;27.90;55.12;101336.09;5094062;28;20048;-56
2023/06/22 06:35:15;;;;;;;9.60;6.18;;;;;;;27.89;54.73;101341.72;5094024;28;20380;-53
2023/06/22 06:37:45;;;;;;;9.20;6.63;;;;;;;27.88;54.57;101342.75;5093636;28;20047;-55
2023/06/22 06:40:14;;;;;;;8.57;6.60;;;;;;;27.90;54.37;101341.53;5093779;28;20062;-55
2023/06/22 06:42:45;;;;;;;8.77;6.63;;;;;;;27.91;54.34;101339.66;5081353;28;20432;-55
2023/06/22 06:45:18;;;;;;;7.20;6.43;;;;;;;27.92;54.31;101339.50;5073440;28;20515;-54
2023/06/22 06:47:46;;;;;;;7.32;6.60;;;;;;;27.96;54.98;101345.44;5072299;28;20049;-55
2023/06/22 06:50:14;;;;;;;8.50;6.88;;;;;;;27.99;55.22;101331.47;5073370;28;20044;-55
2023/06/22 06:52:42;;;;;;;7.63;6.45;;;;;;;28.02;55.34;101337.41;5080524;28;20048;-58
2023/06/22 06:55:11;;;;;;;8.60;6.97;;;;;;;28.05;55.13;101334.34;5093624;28;20040;-58
2023/06/22 06:57:40;;;;;;;8.70;7.03;;;;;;;28.11;54.90;101343.66;5093173;28;20044;-58
2023/06/22 07:00:11;;;;;;;7.97;6.45;;;;;;;28.14;54.99;101335.13;5093301;28;20052;-58
2023/06/22 07:02:41;;;;;;;8.98;7.25;;;;;;;28.18;55.17;101338.34;5093369;28;20048;-59
2023/06/22 07:05:10;;;;;;;7.38;6.22;;;;;;;28.20;55.32;101328.16;5092678;28;20040;-58
2023/06/22 07:07:38;;;;;;;7.72;6.15;;;;;;;28.23;55.57;101322.31;5093091;28;20044;-58
2023/06/22 07:10:06;;;;;;;8.23;6.35;;;;;;;28.24;55.33;101324.03;5093212;28;20075;-59
2023/06/22 07:12:34;;;;;;;7.88;6.80;;;;;;;28.26;55.55;101322.81;5093339;28;20039;-60
2023/06/22 07:15:09;;;;;;;8.63;6.93;;;;;;;28.27;55.66;101315.50;5093259;28;20044;-59
2023/06/22 07:17:37;;;;;;;9.80;6.88;;;;;;;28.28;55.31;101312.63;5093009;28;20051;-57
2023/06/22 07:20:14;;;;;;;9.15;6.72;;;;;;;28.30;55.77;101317.88;5093317;28;20051;-57
2023/06/22 07:22:44;;;;;;;9.43;7.40;;;;;;;28.32;55.48;101304.94;5091985;28;20052;-57
2023/06/22 07:25:14;;;;;;;8.77;7.32;;;;;;;28.34;55.55;101305.59;5093200;28;20119;-56
2023/06/22 07:27:57;;;;;;;8.27;6.55;;;;;;;28.36;55.10;101317.19;5092878;28;20055;-58
2023/06/22 07:30:25;;;;;;;10.53;6.63;;;;;;;28.38;55.12;101303.38;5092358;28;20063;-53
2023/06/22 07:32:52;;;;;;;8.25;6.65;;;;;;;28.39;55.46;101296.91;5094710;28;20284;-57
2023/06/22 07:35:19;;;;;;;8.38;6.15;;;;;;;28.41;55.07;101290.25;5097020;28;20051;-57
2023/06/22 07:37:47;;;;;;;7.88;6.07;;;;;;;28.43;55.04;101290.06;5097017;28;20048;-57
2023/06/22 07:40:14;;;;;;;8.50;6.88;;;;;;;28.44;55.33;101289.03;5096956;28;20055;-57
2023/06/22 07:42:42;;;;;;;7.63;6.65;;;;;;;28.45;55.45;101296.19;5096961;28;20476;-56
2023/06/22 07:45:09;;;;;;;7.40;6.57;;;;;;;28.44;54.29;101289.03;5096852;28;20060;-58
2023/06/22 07:47:37;;;;;;;9.57;6.80;;;;;;;28.43;54.00;101285.47;5091706;28;20047;-58
2023/06/22 07:50:05;;;;;;;10.05;6.97;;;;;;;28.44;53.88;101286.31;5076279;28;20041;-57
2023/06/22 07:52:33;;;;;;;8.77;6.47;;;;;;;28.44;53.50;101272.69;5082601;28;20044;-56
2023/06/22 07:55:00;;;;;;;10.20;6.45;;;;;;;28.44;53.43;101270.84;5096320;28;20507;-56
2023/06/22 07:57:33;;;;;;;7.63;6.65;;;;;;;28.45;53.29;101274.41;5096358;28;20044;-55
2023/06/22 08:00:11;;;;;;;7.22;6.50;;;;;;;28.48;53.18;101271.31;5096481;28;20419;-57
2023/06/22 08:02:41;;;;;;;7.97;6.40;;;;;;;28.49;53.13;101278.47;5103689;28;20044;-55
2023/06/22 08:05:10;;;;;;;8.38;6.70;;;;;;;28.51;53.14;101284.56;5096098;28;20044;-57
2023/06/22 08:07:49;;;;;;;7.03;5.85;;;;;;;28.50;53.12;101283.72;5096115;28;20039;-57
2023/06/22 08:10:16;;;;;;;9.05;7.05;;;;;;;28.50;52.78;101281.00;5096075;28;20055;-57
2023/06/22 08:12:43;;;;;;;7.50;6.35;;;;;;;28.51;52.36;101282.69;5095848;28;20372;-56
2023/06/22 08:15:11;;;;;;;8.07;6.75;;;;;;;28.53;51.94;101285.25;5095913;28;20055;-57
2023/06/22 08:17:39;;;;;;;6.53;5.85;;;;;;;28.53;52.15;101283.34;5096193;28;20051;-58
2023/06/22 08:20:13;;;;;;;7.38;6.00;;;;;;;28.54;51.65;101285.03;5096037;28;20048;-58
2023/06/22 08:22:42;;;;;;;8.50;6.43;;;;;;;28.55;51.50;101284.00;5095584;28;20044;-56
2023/06/22 08:25:11;;;;;;;8.18;6.45;;;;;;;28.56;51.60;101285.72;5095610;28;20047;-58
2023/06/22 08:27:38;;;;;;;9.65;7.05;;;;;;;28.57;51.88;101281.97;5094854;28;20503;-57
2023/06/22 08:30:07;;;;;;;8.80;6.70;;;;;;;28.61;51.82;101281.63;5094118;28;20126;-57
2023/06/22 08:32:35;;;;;;;7.38;6.30;;;;;;;28.63;52.15;101284.97;5094482;28;20051;-55
2023/06/22 08:35:03;;;;;;;10.65;7.50;;;;;;;28.63;52.61;101276.81;5094923;28;20510;-57
2023/06/22 08:37:30;;;;;;;8.55;7.15;;;;;;;28.64;52.38;101273.03;5095701;28;20048;-58
2023/06/22 08:40:09;;;;;;;8.90;6.38;;;;;;;28.65;52.77;101255.69;5079211;28;20056;-58
2023/06/22 08:42:40;;;;;;;10.52;6.72;;;;;;;28.65;52.73;101252.97;5075189;28;20047;-57
2023/06/22 08:45:08;;;;;;;10.20;6.80;;;;;;;28.65;52.85;101269.31;5073638;28;20473;-57
2023/06/22 08:47:35;;;;;;;9.35;7.30;;;;;;;28.67;52.99;101269.97;5075202;28;20048;-56
2023/06/22 08:50:03;;;;;;;7.20;6.50;;;;;;;28.69;53.52;101260.59;5075260;28;20534;-57
2023/06/22 08:52:31;;;;;;;8.38;6.85;;;;;;;28.71;53.32;101252.22;5075552;28;20492;-57
2023/06/22 08:54:58;;;;;;;7.97;7.15;;;;;;;28.72;53.45;101252.03;5075324;28;20378;-56
2023/06/22 08:57:27;;;;;;;8.13;6.70;;;;;;;28.75;53.55;101265.28;5074037;28;20064;-57
2023/06/22 08:59:58;;;;;;;8.95;6.82;;;;;;;28.74;52.93;101269.06;5075252;28;20048;-57
2023/06/22 09:02:29;;;;;;;9.10;7.15;;;;;;;28.75;52.54;101268.00;5075303;28;20048;-57
2023/06/22 09:04:57;;;;;;;7.65;6.85;;;;;;;28.76;52.75;101260.69;5074773;28;20052;-56
2023/06/22 09:07:25;;;;;;;8.10;6.45;;;;;;;28.77;52.52;101259.69;5074514;28;20503;-56
2023/06/22 09:09:53;;;;;;;8.18;6.75;;;;;;;28.77;52.69;101265.97;5074935;28;20048;-57
2023/06/22 09:12:24;;;;;;;7.63;6.60;;;;;;;28.78;52.54;101259.47;5073659;28;20059;-57
2023/06/22 09:14:51;;;;;;;7.97;6.75;;;;;;;28.79;52.90;101265.78;5074284;28;20055;-55
2023/06/22 09:17:19;;;;;;;6.85;6.15;;;;;;;28.78;52.57;101251.31;5073688;28;20044;-56
2023/06/22 09:19:47;;;;;;;7.88;6.10;;;;;;;28.78;52.51;101251.31;5074737;28;20059;-57
2023/06/22 09:22:14;;;;;;;9.95;7.07;;;;;;;28.79;52.00;101250.25;5074277;28;20048;-55
2023/06/22 09:24:42;;;;;;;8.93;6.85;;;;;;;28.79;52.46;101254.88;5074625;28;20044;-62
2023/06/22 09:27:09;;;;;;;7.55;6.38;;;;;;;28.79;52.07;101250.25;5072784;28;20052;-59
2023/06/22 09:29:37;;;;;;;8.15;6.32;;;;;;;28.80;52.05;101249.25;5072908;28;20052;-58
2023/06/22 09:32:05;;;;;;;7.10;6.40;;;;;;;28.81;51.99;101245.50;5074558;28;20381;-59
2023/06/22 09:34:32;;;;;;;9.38;6.70;;;;;;;28.80;52.25;101246.53;5074576;28;20059;-57
2023/06/22 09:37:02;;;;;;;7.13;6.03;;;;;;;28.80;51.65;101242.94;5074314;28;20041;-58
2023/06/22 09:39:30;;;;;;;7.97;6.57;;;;;;;28.80;51.61;101238.34;5074526;28;20056;-58
2023/06/22 09:42:00;;;;;;;8.55;6.78;;;;;;;28.81;51.59;101244.66;5073983;28;20045;-58
2023/06/22 09:44:27;;;;;;;6.97;6.00;;;;;;;28.81;51.82;101248.22;5073510;28;20507;-59
2023/06/22 09:46:55;;;;;;;7.70;6.82;;;;;;;28.83;51.60;101248.03;5073316;28;20376;-57
2023/06/22 09:49:22;;;;;;;7.72;6.93;;;;;;;28.83;51.09;101248.03;5073163;28;20053;-59
2023/06/22 09:52:08;;;;;;;7.50;6.78;;;;;;;28.83;51.69;101253.47;5073189;28;20063;-59
2023/06/22 09:54:35;;;;;;;8.98;6.65;;;;;;;28.83;52.94;101250.75;5072239;28;20045;-58
2023/06/22 09:57:03;;;;;;;8.95;7.40;;;;;;;28.82;54.58;101240.88;5073752;28;20041;-57
2023/06/22 09:59:30;;;;;;;9.32;7.53;;;;;;;28.79;55.78;101227.63;5074084;28;20044;-57
2023/06/22 10:01:58;;;;;;;8.43;7.65;;;;;;;28.77;56.12;101224.25;5073908;28;20071;-56
2023/06/22 10:04:25;;;;;;;8.40;7.45;;;;;;;28.75;56.59;101226.31;5074078;28;20048;-56
2023/06/22 10:06:53;;;;;;;8.38;7.18;;;;;;;28.75;57.05;101223.56;5073878;28;20051;-57
2023/06/22 10:09:21;;;;;;;8.75;7.82;;;;;;;28.71;57.74;101227.69;5072735;28;20052;-56
2023/06/22 10:11:48;;;;;;;9.18;7.80;;;;;;;28.70;57.92;101232.31;5074111;28;20049;-57
2023/06/22 10:14:16;;;;;;;8.40;7.60;;;;;;;28.69;58.57;101230.63;5073843;28;20380;-55
2023/06/22 10:16:43;;;;;;;8.30;7.32;;;;;;;28.68;58.75;101234.34;5073944;28;20051;-56
2023/06/22 10:19:11;;;;;;;7.70;6.90;;;;;;;28.68;59.44;101231.63;5072740;28;20053;-56
2023/06/22 10:21:38;;;;;;;8.35;7.43;;;;;;;28.67;59.55;101238.13;5073136;28;20404;-56
2023/06/22 10:24:06;;;;;;;8.05;7.25;;;;;;;28.67;59.83;101232.66;5073472;28;20075;-53
2023/06/22 10:26:34;;;;;;;8.68;7.78;;;;;;;28.67;60.23;101229.09;5073496;28;20040;-55
2023/06/22 10:29:03;;;;;;;7.53;6.82;;;;;;;28.66;60.24;101230.97;5072859;28;20059;-56
2023/06/22 10:31:33;;;;;;;8.90;7.22;;;;;;;28.66;60.25;101216.53;5073037;28;20052;-57
2023/06/22 10:34:01;;;;;;;9.05;7.22;;;;;;;28.66;60.44;101213.78;5073219;28;20048;-56
2023/06/22 10:36:28;;;;;;;10.65;7.90;;;;;;;28.67;60.46;101220.94;5072268;28;20048;-55
2023/06/22 10:38:58;;;;;;;9.93;7.53;;;;;;;28.66;60.93;101206.47;5072105;28;20044;-59
2023/06/22 10:41:25;;;;;;;8.52;7.63;;;;;;;28.67;61.07;101202.69;5073308;28;20049;-54
2023/06/22 10:43:53;;;;;;;8.93;8.05;;;;;;;28.68;60.70;101207.09;5073180;28;20400;-56
2023/06/22 10:46:20;;;;;;;9.10;7.35;;;;;;;28.68;60.96;101207.09;5073376;28;20044;-56
2023/06/22 10:48:47;;;;;;;9.88;8.32;;;;;;;28.69;60.71;101208.81;5073423;28;20389;-56
2023/06/22 10:51:15;;;;;;;8.98;7.95;;;;;;;28.70;61.14;101215.97;5073431;28;20047;-57
2023/06/22 10:53:43;;;;;;;8.95;8.05;;;;;;;28.70;61.07;101210.50;5073154;28;20051;-56
2023/06/22 10:56:10;;;;;;;9.02;7.57;;;;;;;28.72;61.37;101199.41;5072815;28;20051;-55
2023/06/22 10:58:37;;;;;;;9.35;8.10;;;;;;;28.72;61.31;101210.31;5072367;28;20040;-56
2023/06/22 11:01:05;;;;;;;8.27;7.45;;;;;;;28.72;61.14;101213.03;5072513;28;20075;-56
2023/06/22 11:03:32;;;;;;;8.05;7.25;;;;;;;28.71;61.50;101217.66;5073327;28;20085;-56
2023/06/22 11:05:59;;;;;;;9.45;8.55;;;;;;;28.69;61.82;101211.53;5072999;28;20056;-56
2023/06/22 11:08:27;;;;;;;8.95;8.05;;;;;;;28.68;61.72;101212.56;5075677;28;20052;-56
2023/06/22 11:10:54;;;;;;;9.80;8.65;;;;;;;28.67;61.53;101205.44;5077297;28;20055;-57
2023/06/22 11:13:21;;;;;;;9.82;8.75;;;;;;;28.67;61.34;101201.84;5077064;28;20044;-57
2023/06/22 11:15:49;;;;;;;9.20;8.30;;;;;;;28.68;60.63;101192.66;5074762;28;20107;-55
2023/06/22 11:18:16;;;;;;;11.73;9.15;;;;;;;28.69;60.22;101191.63;5076695;28;20040;-56
2023/06/22 11:20:44;;;;;;;10.10;8.77;;;;;;;28.71;60.02;101189.56;5075771;28;20051;-56
2023/06/22 11:23:12;;;;;;;10.18;9.18;;;;;;;28.74;59.34;101178.28;5076725;28;20055;-63
2023/06/22 11:25:41;;;;;;;12.73;8.98;;;;;;;28.76;59.07;101170.75;5076710;28;20056;-58
2023/06/22 11:28:09;;;;;;;11.25;8.73;;;;;;;28.76;58.94;101166.19;5076677;28;20381;-58
2023/06/22 11:30:36;;;;;;;11.18;9.27;;;;;;;28.76;59.27;101155.28;5076865;28;20389;-59